createdAt,value
2022-11-07T00:29:24.172Z,0
2022-11-07T00:30:04.381Z,0
2022-11-07T00:30:44.907Z,0
2022-11-07T00:31:25.417Z,0
2022-11-07T00:32:05.934Z,0
2022-11-07T00:32:46.443Z,0
2022-11-07T00:33:26.963Z,0
2022-11-07T00:34:07.422Z,0
2022-11-07T00:34:47.904Z,0
2022-11-07T00:35:28.454Z,0
2022-11-07T00:36:08.914Z,0
2022-11-07T00:42:53.940Z,0
2022-11-07T00:43:34.403Z,0
2022-11-07T00:44:14.865Z,0
2022-11-07T00:44:55.393Z,0
2022-11-07T00:45:35.953Z,0
2022-11-07T00:46:16.405Z,0
2022-11-07T00:46:56.863Z,0
2022-11-07T00:47:37.360Z,0
2022-11-07T00:48:17.908Z,0
2022-11-07T00:48:58.405Z,0
2022-11-07T00:49:38.863Z,0
2022-11-07T00:55:03.884Z,0
2022-11-07T00:55:44.633Z,0
2022-11-07T00:56:25.163Z,0
2022-11-07T00:57:05.684Z,0
2022-11-07T00:57:46.178Z,0
2022-11-07T00:58:26.669Z,0
2022-11-07T00:59:07.187Z,0
2022-11-07T00:59:47.721Z,0
2022-11-07T01:00:28.405Z,0
2022-11-07T01:01:08.768Z,0
2022-11-07T01:07:53.780Z,0
2022-11-07T01:08:34.272Z,0
2022-11-07T01:09:14.793Z,0
2022-11-07T01:09:55.395Z,0
2022-11-07T01:10:35.771Z,0
2022-11-07T01:11:16.257Z,0
2022-11-07T01:11:56.751Z,0
2022-11-07T01:12:37.291Z,0
2022-11-07T01:13:17.854Z,0
2022-11-07T01:13:58.445Z,0
2022-11-07T01:14:38.841Z,0
2022-11-07T01:21:24.032Z,0
2022-11-07T01:22:04.552Z,0
2022-11-07T01:22:45.049Z,0
2022-11-07T01:23:26.329Z,0
2022-11-07T01:24:06.862Z,0
2022-11-07T01:24:47.307Z,0
2022-11-07T01:25:27.792Z,0
2022-11-07T01:26:48.852Z,0
2022-11-07T01:32:53.651Z,0
2022-11-07T01:33:34.062Z,0
2022-11-07T01:34:14.682Z,0
2022-11-07T01:34:55.102Z,0
2022-11-07T01:35:35.593Z,0
2022-11-07T01:36:16.036Z,0
2022-11-07T01:36:56.594Z,0
2022-11-07T01:37:37.040Z,0
2022-11-07T01:38:17.579Z,0
2022-11-07T01:38:58.127Z,0
2022-11-07T01:39:38.756Z,0
2022-11-07T01:46:23.702Z,0
2022-11-07T01:47:04.252Z,0
2022-11-07T01:47:44.757Z,0
2022-11-07T01:48:25.238Z,0
2022-11-07T01:49:05.784Z,0
2022-11-07T01:49:46.311Z,0
2022-11-07T01:50:26.781Z,0
2022-11-07T01:51:07.313Z,0
2022-11-07T01:52:28.275Z,0
2022-11-07T01:53:08.806Z,0
2022-11-07T01:59:14.037Z,0
2022-11-07T01:59:54.604Z,0
2022-11-07T02:00:35.071Z,0
2022-11-07T02:01:15.579Z,0
2022-11-07T02:01:56.123Z,0
2022-11-07T02:02:36.881Z,0
2022-11-07T02:03:17.605Z,0
2022-11-07T02:03:57.651Z,0
2022-11-07T02:04:38.129Z,0
2022-11-07T02:05:18.667Z,0
2022-11-07T02:09:12.689Z,0
2022-11-07T02:09:53.208Z,0
2022-11-07T02:10:33.662Z,0
2022-11-07T02:11:14.115Z,0
2022-11-07T02:11:54.626Z,0
2022-11-07T02:12:35.104Z,0
2022-11-07T02:13:15.888Z,0
2022-11-07T02:13:56.094Z,0
2022-11-07T02:15:17.029Z,0
2022-11-07T02:15:57.525Z,0
2022-11-07T02:23:22.748Z,0
2022-11-07T02:24:03.225Z,0
2022-11-07T02:24:43.695Z,0
2022-11-07T02:25:24.158Z,0
2022-11-07T02:26:04.656Z,0
2022-11-07T02:26:45.083Z,0
2022-11-07T02:27:25.545Z,0
2022-11-07T02:28:06.047Z,0
2022-11-07T02:28:46.510Z,0
2022-11-07T02:29:26.998Z,0
2022-11-07T02:30:07.486Z,0
2022-11-07T02:37:32.690Z,0
2022-11-07T02:38:13.149Z,0
2022-11-07T02:38:53.614Z,0
2022-11-07T02:39:34.135Z,0
2022-11-07T02:40:14.597Z,0
2022-11-07T02:40:55.065Z,0
2022-11-07T02:41:35.526Z,0
2022-11-07T02:42:15.981Z,0
2022-11-07T02:42:56.465Z,0
2022-11-07T02:43:36.943Z,0
2022-11-07T02:44:17.459Z,0
2022-11-07T02:49:58.863Z,0
2022-11-07T02:50:39.331Z,0
2022-11-07T02:51:19.785Z,0
2022-11-07T02:52:00.238Z,0
2022-11-07T02:53:21.238Z,0
2022-11-07T02:54:01.689Z,0
2022-11-07T02:54:42.136Z,0
2022-11-07T02:55:22.608Z,0
2022-11-07T02:56:03.070Z,0
2022-11-07T02:56:43.570Z,0
2022-11-07T03:04:08.744Z,0
2022-11-07T03:04:49.372Z,0
2022-11-07T03:05:29.747Z,0
2022-11-07T03:06:10.220Z,0
2022-11-07T03:06:50.682Z,0
2022-11-07T03:07:31.174Z,0
2022-11-07T03:08:11.682Z,0
2022-11-07T03:08:52.162Z,0
2022-11-07T03:09:32.643Z,0
2022-11-07T03:10:13.104Z,0
2022-11-07T03:10:53.588Z,0
2022-11-07T03:18:19.033Z,0
2022-11-07T03:18:59.530Z,0
2022-11-07T03:19:40.008Z,0
2022-11-07T03:20:20.517Z,0
2022-11-07T03:21:01.018Z,0
2022-11-07T03:21:41.524Z,0
2022-11-07T03:22:21.955Z,0
2022-11-07T03:23:02.427Z,0
2022-11-07T03:23:42.889Z,0
2022-11-07T03:26:56.508Z,0
2022-11-07T03:27:36.968Z,0
2022-11-07T03:28:17.488Z,0
2022-11-07T03:28:57.895Z,0
2022-11-07T03:29:38.449Z,0
2022-11-07T03:30:18.888Z,0
2022-11-07T03:30:59.359Z,0
2022-11-07T03:31:39.836Z,0
2022-11-07T03:32:20.316Z,0
2022-11-07T03:33:00.769Z,0
2022-11-07T03:33:41.228Z,0
2022-11-07T03:41:06.479Z,0
2022-11-07T03:41:46.979Z,0
2022-11-07T03:45:20.925Z,0
2022-11-07T03:46:01.917Z,0
2022-11-07T03:46:42.929Z,0
2022-11-07T03:47:23.465Z,0
2022-11-07T03:48:03.938Z,0
2022-11-07T03:48:44.427Z,0
2022-11-07T03:49:24.926Z,0
2022-11-07T03:50:05.431Z,0
2022-11-07T03:50:45.928Z,0
2022-11-07T03:58:11.119Z,0
2022-11-07T03:58:51.522Z,0
2022-11-07T03:59:32.052Z,0
2022-11-07T04:00:12.522Z,0
2022-11-07T04:00:52.989Z,0
2022-11-07T04:01:33.624Z,0
2022-11-07T04:02:14.081Z,0
2022-11-07T04:02:54.562Z,0
2022-11-07T04:03:34.916Z,0
2022-11-07T04:04:15.378Z,0
2022-11-07T04:12:21.017Z,0
2022-11-07T04:13:01.557Z,0
2022-11-07T04:13:42.004Z,0
2022-11-07T04:14:22.505Z,0
2022-11-07T04:15:02.967Z,0
2022-11-07T04:15:43.478Z,0
2022-11-07T04:16:24.019Z,0
2022-11-07T04:17:04.490Z,0
2022-11-07T04:17:44.968Z,0
2022-11-07T04:18:25.433Z,0
2022-11-07T04:19:05.872Z,0
2022-11-07T04:25:50.708Z,0
2022-11-07T04:26:31.219Z,0
2022-11-07T04:27:11.709Z,0
2022-11-07T04:27:52.218Z,0
2022-11-07T04:28:32.639Z,0
2022-11-07T04:29:13.125Z,0
2022-11-07T04:29:53.605Z,0
2022-11-07T04:30:34.116Z,0
2022-11-07T04:31:14.559Z,0
2022-11-07T04:31:55.128Z,0
2022-11-07T04:32:35.533Z,0
2022-11-07T04:33:16.333Z,0
2022-11-07T04:40:00.878Z,0
2022-11-07T04:40:41.323Z,0
2022-11-07T04:41:21.790Z,0
2022-11-07T04:42:02.269Z,0
2022-11-07T04:42:42.776Z,0
2022-11-07T04:43:23.224Z,0
2022-11-07T04:44:03.715Z,0
2022-11-07T04:44:44.210Z,0
2022-11-07T04:45:24.685Z,0
2022-11-07T04:46:05.203Z,0
2022-11-07T04:46:45.729Z,0
2022-11-07T04:53:30.695Z,0
2022-11-07T04:54:11.202Z,0
2022-11-07T04:54:51.681Z,0
2022-11-07T04:55:32.142Z,0
2022-11-07T04:56:12.617Z,0
2022-11-07T04:56:53.137Z,0
2022-11-07T04:57:33.650Z,0
2022-11-07T04:58:14.110Z,0
2022-11-07T04:58:54.633Z,0
2022-11-07T04:59:35.064Z,0
2022-11-07T05:00:15.519Z,0
2022-11-07T05:00:56.018Z,0
2022-11-07T05:07:40.765Z,0
2022-11-07T05:08:21.334Z,0
2022-11-07T05:09:01.746Z,0
2022-11-07T05:09:42.209Z,0
2022-11-07T05:10:22.691Z,0
2022-11-07T05:11:03.170Z,0
2022-11-07T05:11:43.633Z,0
2022-11-07T05:12:24.150Z,0
2022-11-07T05:13:04.635Z,0
2022-11-07T05:13:45.121Z,0
2022-11-07T05:14:25.598Z,0
2022-11-07T05:21:51.111Z,0
2022-11-07T05:22:31.680Z,0
2022-11-07T05:23:12.479Z,0
2022-11-07T05:23:52.621Z,0
2022-11-07T05:24:33.151Z,0
2022-11-07T05:25:13.564Z,0
2022-11-07T05:25:54.033Z,0
2022-11-07T05:26:34.537Z,0
2022-11-07T05:27:15.052Z,0
2022-11-07T05:27:55.554Z,0
2022-11-07T05:35:21.020Z,0
2022-11-07T05:36:01.455Z,0
2022-11-07T05:36:41.939Z,0
2022-11-07T05:37:22.386Z,0
2022-11-07T05:38:02.858Z,0
2022-11-07T05:38:43.366Z,0
2022-11-07T05:39:23.881Z,0
2022-11-07T05:40:04.681Z,0
2022-11-07T05:40:44.885Z,0
2022-11-07T05:41:25.376Z,0
2022-11-07T05:42:05.843Z,0
2022-11-07T05:49:47.810Z,0
2022-11-07T05:50:28.326Z,0
2022-11-07T05:51:08.745Z,0
2022-11-07T05:51:49.242Z,0
2022-11-07T05:52:29.740Z,0
2022-11-07T06:31:34.248Z,20
2022-11-07T06:32:14.478Z,24
2022-11-07T06:32:55.486Z,24
2022-11-07T06:33:36.333Z,28
2022-11-07T06:34:17.169Z,28
2022-11-07T06:34:57.639Z,28
2022-11-07T06:38:37.182Z,28
2022-11-07T06:39:17.677Z,28
2022-11-07T06:39:58.152Z,28
2022-11-07T06:40:38.581Z,28
2022-11-07T06:41:19.148Z,28
2022-11-07T06:41:59.635Z,28
2022-11-07T06:43:20.946Z,32
2022-11-07T06:44:00.998Z,32
2022-11-07T06:44:41.498Z,32
2022-11-07T06:49:26.900Z,32
2022-11-07T06:50:07.443Z,32
2022-11-07T06:50:49.433Z,32
2022-11-07T06:51:30.886Z,36
2022-11-07T06:56:17.039Z,56
2022-11-07T06:56:57.578Z,64
2022-11-07T06:57:38.061Z,68
2022-11-07T06:58:18.605Z,68
2022-11-07T06:58:59.035Z,72
2022-11-07T06:59:39.562Z,68
2022-11-07T07:01:00.571Z,72
2022-11-07T07:01:41.157Z,80
2022-11-07T07:02:44.084Z,88
2022-11-07T07:07:47.040Z,84
2022-11-07T07:08:27.593Z,88
2022-11-07T07:11:43.203Z,92
2022-11-07T07:12:23.698Z,100
2022-11-07T07:13:04.108Z,104
2022-11-07T07:13:45.065Z,108
2022-11-07T07:14:26.695Z,108
2022-11-07T07:15:07.685Z,108
2022-11-07T07:15:51.074Z,116
2022-11-07T07:16:27.813Z,116
2022-11-07T07:19:54.448Z,180
2022-11-07T07:20:35.168Z,204
2022-11-07T07:21:15.735Z,216
2022-11-07T07:21:57.012Z,240
2022-11-07T07:22:37.551Z,244
2022-11-07T07:26:41.489Z,224
2022-11-07T07:27:21.940Z,228
2022-11-07T07:28:02.468Z,204
2022-11-07T07:28:42.929Z,220
2022-11-07T07:29:23.446Z,208
2022-11-07T07:30:04.032Z,192
2022-11-07T07:33:18.344Z,212
2022-11-07T07:33:59.341Z,196
2022-11-07T07:34:39.801Z,180
2022-11-07T07:35:20.542Z,164
2022-11-07T07:36:01.056Z,160
2022-11-07T07:36:41.554Z,152
2022-11-07T07:41:27.126Z,228
2022-11-07T07:42:08.359Z,220
2022-11-07T07:45:06.465Z,188
2022-11-07T07:45:46.708Z,188
2022-11-07T07:46:27.234Z,184
2022-11-07T07:47:11.189Z,184
2022-11-07T07:53:12.837Z,164
2022-11-07T07:53:53.309Z,168
2022-11-07T07:54:33.867Z,180
2022-11-07T07:55:14.474Z,192
2022-11-07T07:55:54.866Z,212
2022-11-07T07:56:35.417Z,232
2022-11-07T07:57:15.880Z,248
2022-11-07T08:00:29.684Z,312
2022-11-07T08:04:08.244Z,244
2022-11-07T08:04:49.578Z,240
2022-11-07T08:05:30.273Z,240
2022-11-07T08:06:22.598Z,240
2022-11-07T08:12:19.741Z,232
2022-11-07T08:13:02.085Z,260
2022-11-07T08:13:42.644Z,272
2022-11-07T08:14:23.104Z,284
2022-11-07T08:15:03.630Z,284
2022-11-07T08:19:48.711Z,236
2022-11-07T08:20:29.137Z,232
2022-11-07T08:21:10.097Z,224
2022-11-07T08:21:50.523Z,228
2022-11-07T08:22:31.024Z,236
2022-11-07T08:23:16.304Z,240
2022-11-07T08:23:52.145Z,252
2022-11-07T08:24:32.756Z,272
2022-11-07T08:25:13.177Z,300
2022-11-07T08:25:53.764Z,324
2022-11-07T08:31:58.998Z,312
2022-11-07T08:32:40.298Z,304
2022-11-07T08:33:20.861Z,296
2022-11-07T08:34:01.871Z,280
2022-11-07T08:34:42.319Z,276
2022-11-07T08:35:22.986Z,284
2022-11-07T08:36:03.479Z,296
2022-11-07T08:36:45.838Z,300
2022-11-07T08:38:10.749Z,320
2022-11-07T08:38:51.200Z,332
2022-11-07T08:39:31.800Z,348
2022-11-07T08:40:12.293Z,348
2022-11-07T08:40:53.787Z,332
2022-11-07T08:46:18.789Z,312
2022-11-07T08:47:01.258Z,312
2022-11-07T08:47:39.843Z,312
2022-11-07T08:48:20.406Z,308
2022-11-07T08:49:00.794Z,300
2022-11-07T08:49:41.293Z,288
2022-11-07T08:50:21.813Z,284
2022-11-07T08:51:02.421Z,288
2022-11-07T08:51:42.902Z,316
2022-11-07T08:52:23.541Z,352
2022-11-07T08:53:04.054Z,388
2022-11-07T08:58:30.106Z,460
2022-11-07T08:59:49.144Z,412
2022-11-07T09:00:30.249Z,412
2022-11-07T09:02:15.418Z,448
2022-11-07T09:03:08.675Z,468
2022-11-07T09:03:56.704Z,480
2022-11-07T09:04:33.537Z,488
2022-11-07T09:05:13.952Z,500
2022-11-07T09:11:18.954Z,372
2022-11-07T09:11:59.448Z,372
2022-11-07T09:12:39.919Z,380
2022-11-07T09:13:20.354Z,424
2022-11-07T09:14:00.832Z,440
2022-11-07T09:14:41.400Z,440
2022-11-07T09:15:21.936Z,424
2022-11-07T09:16:02.437Z,432
2022-11-07T09:16:42.962Z,436
2022-11-07T09:17:23.585Z,436
2022-11-07T09:18:03.994Z,464
2022-11-07T09:24:08.843Z,576
2022-11-07T09:24:49.439Z,608
2022-11-07T09:25:30.001Z,600
2022-11-07T09:26:10.610Z,560
2022-11-07T09:26:51.222Z,552
2022-11-07T09:27:31.676Z,564
2022-11-07T09:28:12.265Z,584
2022-11-07T09:28:56.110Z,588
2022-11-07T09:29:33.271Z,644
2022-11-07T09:30:13.770Z,696
2022-11-07T09:36:43.093Z,516
2022-11-07T09:37:29.624Z,504
2022-11-07T09:38:10.033Z,500
2022-11-07T09:38:50.605Z,512
2022-11-07T09:39:31.078Z,512
2022-11-07T09:40:11.574Z,476
2022-11-07T09:40:52.163Z,448
2022-11-07T09:41:32.769Z,460
2022-11-07T09:48:18.106Z,436
2022-11-07T09:49:02.533Z,424
2022-11-07T09:49:43.912Z,384
2022-11-07T09:51:20.690Z,360
2022-11-07T09:52:01.304Z,360
2022-11-07T09:52:45.465Z,356
2022-11-07T09:54:46.805Z,384
2022-11-07T09:55:25.692Z,404
2022-11-07T09:56:16.802Z,420
2022-11-07T09:56:57.262Z,416
2022-11-07T09:57:37.897Z,404
2022-11-07T10:01:35.965Z,512
2022-11-07T10:02:16.144Z,476
2022-11-07T10:02:56.895Z,436
2022-11-07T10:03:37.861Z,428
2022-11-07T10:04:27.175Z,468
2022-11-07T10:07:36.550Z,636
2022-11-07T10:08:20.209Z,648
2022-11-07T10:09:00.680Z,676
2022-11-07T10:09:41.232Z,696
2022-11-07T10:15:07.031Z,788
2022-11-07T10:15:48.628Z,776
2022-11-07T10:16:29.969Z,840
2022-11-07T10:17:10.463Z,780
2022-11-07T10:17:53.851Z,696
2022-11-07T10:18:36.270Z,668
2022-11-07T10:24:14.681Z,892
2022-11-07T10:25:11.863Z,848
2022-11-07T10:26:02.985Z,760
2022-11-07T10:26:53.763Z,816
2022-11-07T10:36:42.122Z,1296
2022-11-07T10:37:23.330Z,1244
2022-11-07T10:50:10.520Z,820
2022-11-07T10:50:49.935Z,892
2022-11-07T10:51:32.918Z,980
2022-11-07T10:52:15.527Z,944
2022-11-07T10:57:50.253Z,952
2022-11-07T10:58:32.109Z,944
2022-11-07T10:59:13.235Z,1052
2022-11-07T10:59:54.299Z,1036
2022-11-07T11:01:16.381Z,1272
2022-11-07T11:01:57.349Z,1388
2022-11-07T11:02:39.859Z,1060
2022-11-07T11:03:21.033Z,1004
2022-11-07T11:05:26.022Z,896
2022-11-07T11:06:07.721Z,924
2022-11-07T11:06:48.787Z,964
2022-11-07T11:07:29.984Z,940
2022-11-07T11:12:39.902Z,680
2022-11-07T11:16:10.547Z,612
2022-11-07T11:16:51.429Z,604
2022-11-07T11:17:32.152Z,636
2022-11-07T11:18:12.817Z,680
2022-11-07T11:18:53.318Z,720
2022-11-07T11:19:34.125Z,880
2022-11-07T11:20:14.745Z,888
2022-11-07T11:29:03.339Z,1164
2022-11-07T11:29:46.909Z,1192
2022-11-07T11:30:28.138Z,1188
2022-11-07T11:31:08.184Z,1164
2022-11-07T11:33:50.615Z,1088
2022-11-07T11:34:31.986Z,1132
2022-11-07T11:35:12.854Z,1160
2022-11-07T11:35:53.806Z,1168
2022-11-07T11:36:34.459Z,1192
2022-11-07T11:37:14.979Z,1180
2022-11-07T11:37:55.660Z,1176
2022-11-07T11:43:20.723Z,1160
2022-11-07T11:44:01.223Z,1152
2022-11-07T11:44:41.753Z,1140
2022-11-07T11:45:22.398Z,1044
2022-11-07T11:46:03.158Z,1172
2022-11-07T11:46:43.687Z,1184
2022-11-07T11:47:24.197Z,1216
2022-11-07T11:48:04.756Z,1252
2022-11-07T11:48:45.875Z,1172
2022-11-07T12:32:15.437Z,808
2022-11-07T12:35:35.281Z,588
2022-11-07T12:36:15.866Z,560
2022-11-07T12:36:56.366Z,580
2022-11-07T12:37:36.911Z,584
2022-11-07T12:41:55.114Z,636
2022-11-07T12:42:35.568Z,648
2022-11-07T12:43:16.221Z,616
2022-11-07T12:43:56.613Z,580
2022-11-07T12:44:37.146Z,548
2022-11-07T12:49:48.719Z,632
2022-11-07T12:50:33.668Z,644
2022-11-07T12:51:14.580Z,628
2022-11-07T12:51:55.176Z,608
2022-11-07T12:53:18.140Z,672
2022-11-07T12:53:59.213Z,700
2022-11-07T12:54:40.379Z,676
2022-11-07T12:55:21.548Z,648
2022-11-07T12:56:02.619Z,676
2022-11-07T12:58:42.577Z,736
2022-11-07T12:59:23.518Z,772
2022-11-07T13:00:07.426Z,804
2022-11-07T13:00:48.790Z,832
2022-11-07T13:04:52.818Z,928
2022-11-07T13:05:33.360Z,940
2022-11-07T13:06:13.832Z,956
2022-11-07T13:06:55.631Z,968
2022-11-07T13:07:36.066Z,948
2022-11-07T13:08:16.588Z,956
2022-11-07T13:08:57.175Z,968
2022-11-07T13:17:01.820Z,828
2022-11-07T13:20:09.268Z,736
2022-11-07T13:20:50.232Z,728
2022-11-07T13:21:30.747Z,720
2022-11-07T13:22:11.554Z,708
2022-11-07T13:22:52.099Z,704
2022-11-07T13:24:13.271Z,704
2022-11-07T13:24:53.898Z,704
2022-11-07T13:25:34.471Z,700
2022-11-07T13:31:39.544Z,668
2022-11-07T13:32:20.073Z,648
2022-11-07T13:33:00.645Z,640
2022-11-07T13:33:41.154Z,644
2022-11-07T13:34:21.651Z,652
2022-11-07T13:35:02.158Z,668
2022-11-07T13:35:42.732Z,676
2022-11-07T13:36:23.245Z,676
2022-11-07T13:37:03.793Z,684
2022-11-07T13:37:44.418Z,668
2022-11-07T13:43:09.090Z,588
2022-11-07T13:43:51.899Z,588
2022-11-07T13:44:30.123Z,572
2022-11-07T13:45:10.603Z,556
2022-11-07T13:45:51.079Z,548
2022-11-07T13:46:31.579Z,556
2022-11-07T13:47:12.468Z,560
2022-11-07T13:47:52.710Z,556
2022-11-07T13:49:13.847Z,556
2022-11-07T13:49:54.405Z,552
2022-11-07T13:57:36.986Z,536
2022-11-07T13:58:18.141Z,512
2022-11-07T13:58:58.725Z,484
2022-11-07T13:59:39.708Z,468
2022-11-07T14:00:20.462Z,456
2022-11-07T14:01:01.164Z,448
2022-11-07T14:01:43.055Z,448
2022-11-07T14:03:51.994Z,444
2022-11-07T14:06:36.626Z,448
2022-11-07T14:07:17.196Z,452
2022-11-07T14:07:57.693Z,448
2022-11-07T14:08:38.996Z,448
2022-11-07T14:10:00.140Z,452
2022-11-07T14:13:55.859Z,448
2022-11-07T14:14:37.028Z,448
2022-11-07T14:15:17.722Z,440
2022-11-07T14:15:58.326Z,440
2022-11-07T14:18:43.465Z,440
2022-11-07T14:19:23.270Z,448
2022-11-07T14:20:04.232Z,460
2022-11-07T14:20:51.170Z,464
2022-11-07T14:22:14.800Z,464
2022-11-07T14:22:53.270Z,460
2022-11-07T14:23:33.815Z,468
2022-11-07T14:24:14.417Z,468
2022-11-07T14:24:54.928Z,472
2022-11-07T14:25:35.687Z,468
2022-11-07T14:26:17.322Z,472
2022-11-07T14:29:42.343Z,460
2022-11-07T14:30:23.028Z,460
2022-11-07T14:31:03.554Z,464
2022-11-07T14:31:45.407Z,464
2022-11-07T14:32:30.870Z,468
2022-11-07T14:33:06.505Z,460
2022-11-07T14:33:47.052Z,456
2022-11-07T14:35:52.079Z,440
2022-11-07T14:36:32.583Z,432
2022-11-07T14:37:13.126Z,428
2022-11-07T14:37:53.626Z,420
2022-11-07T14:38:34.158Z,416
2022-11-07T14:39:15.840Z,412
2022-11-07T14:39:55.155Z,412
2022-11-07T14:40:35.780Z,416
2022-11-07T14:41:16.257Z,424
2022-11-07T14:41:56.745Z,420
2022-11-07T14:42:37.260Z,428
2022-11-07T14:48:42.291Z,764
2022-11-07T14:49:22.739Z,672
2022-11-07T14:50:03.314Z,616
2022-11-07T14:50:43.780Z,692
2022-11-07T14:51:24.211Z,748
2022-11-07T14:52:04.751Z,704
2022-11-07T14:52:45.282Z,664
2022-11-07T14:53:25.908Z,676
2022-11-07T14:54:06.420Z,752
2022-11-07T14:54:47.043Z,936
2022-11-07T14:58:52.761Z,968
2022-11-07T14:59:34.068Z,896
2022-11-07T15:00:15.952Z,920
2022-11-07T15:00:57.125Z,936
2022-11-07T15:07:02.218Z,336
2022-11-07T15:07:42.975Z,312
2022-11-07T15:08:23.565Z,292
2022-11-07T15:09:04.035Z,280
2022-11-07T15:09:44.447Z,264
2022-11-07T15:10:25.203Z,252
2022-11-07T15:11:05.563Z,248
2022-11-07T15:11:46.029Z,240
2022-11-07T15:12:26.597Z,236
2022-11-07T15:13:07.066Z,236
2022-11-07T15:19:51.934Z,204
2022-11-07T15:20:32.481Z,204
2022-11-07T15:21:12.911Z,204
2022-11-07T15:21:53.403Z,200
2022-11-07T15:22:33.939Z,196
2022-11-07T15:23:14.455Z,192
2022-11-07T15:23:54.977Z,184
2022-11-07T15:24:35.485Z,180
2022-11-07T15:25:15.969Z,176
2022-11-07T15:25:56.527Z,164
2022-11-07T15:26:37.003Z,160
2022-11-07T15:32:02.325Z,104
2022-11-07T15:32:42.809Z,100
2022-11-07T15:33:23.247Z,100
2022-11-07T15:34:03.750Z,96
2022-11-07T15:36:05.207Z,88
2022-11-07T15:36:45.707Z,92
2022-11-07T15:37:26.276Z,100
2022-11-07T15:38:47.259Z,92
2022-11-07T15:44:52.188Z,52
2022-11-07T15:45:32.855Z,44
2022-11-07T15:46:13.385Z,44
2022-11-07T15:46:53.904Z,44
2022-11-07T15:47:34.385Z,40
2022-11-07T15:48:15.157Z,40
2022-11-07T15:48:55.365Z,40
2022-11-07T15:49:35.853Z,40
2022-11-07T15:50:16.358Z,32
2022-11-07T15:50:56.816Z,36
2022-11-07T15:57:02.051Z,20
2022-11-07T15:57:42.581Z,16
2022-11-07T15:58:23.100Z,16
2022-11-07T15:59:03.595Z,16
2022-11-07T15:59:44.156Z,16
2022-11-07T16:00:24.600Z,16
2022-11-07T16:01:45.736Z,12
2022-11-07T16:02:26.298Z,12
2022-11-07T16:03:06.635Z,12
2022-11-07T16:03:47.298Z,12
2022-11-07T16:09:52.217Z,4
2022-11-07T16:10:32.811Z,0
2022-11-07T16:11:13.247Z,4
2022-11-07T16:11:53.735Z,4
2022-11-07T16:12:34.219Z,4
2022-11-07T16:13:14.715Z,4
2022-11-07T16:14:09.053Z,0
2022-11-07T16:14:43.788Z,0
2022-11-07T16:15:16.261Z,0
2022-11-07T16:15:56.733Z,4
2022-11-07T16:16:37.322Z,0
2022-11-07T16:23:22.302Z,0
2022-11-07T16:24:02.874Z,0
2022-11-07T16:24:43.311Z,0
2022-11-07T16:25:23.788Z,0
2022-11-07T16:26:04.288Z,0
2022-11-07T16:26:44.777Z,0
2022-11-07T16:27:25.222Z,0
2022-11-07T16:28:05.717Z,0
2022-11-07T16:28:46.258Z,0
2022-11-07T16:30:07.284Z,0
2022-11-07T16:36:52.175Z,0
2022-11-07T16:37:32.714Z,0
2022-11-07T16:38:13.466Z,0
2022-11-07T16:38:53.761Z,0
2022-11-07T16:39:34.295Z,0
2022-11-07T16:40:14.888Z,0
2022-11-07T16:40:55.378Z,0
2022-11-07T16:41:35.905Z,0
2022-11-07T16:42:16.430Z,0
2022-11-07T16:42:56.790Z,0
2022-11-07T16:43:37.299Z,0
2022-11-07T16:50:22.371Z,0
2022-11-07T16:51:02.875Z,0
2022-11-07T16:51:43.285Z,0
2022-11-07T16:52:23.802Z,0
2022-11-07T16:53:04.280Z,0
2022-11-07T16:53:44.828Z,0
2022-11-07T16:54:25.372Z,0
2022-11-07T16:55:05.832Z,0
2022-11-07T16:55:49.493Z,0
2022-11-07T16:56:26.878Z,0
2022-11-07T17:03:12.178Z,0
2022-11-07T17:03:52.628Z,0
2022-11-07T17:04:33.133Z,0
2022-11-07T17:05:13.656Z,0
2022-11-07T17:05:54.220Z,0
2022-11-07T17:06:34.679Z,0
2022-11-07T17:07:15.284Z,0
2022-11-07T17:07:55.783Z,0
2022-11-07T17:08:36.364Z,0
2022-11-07T17:09:16.875Z,0
2022-11-07T17:17:13.370Z,0
2022-11-07T17:22:10.993Z,0
2022-11-07T17:22:54.850Z,0
2022-11-07T17:23:35.302Z,0
2022-11-07T17:24:15.696Z,0
2022-11-07T17:24:57.111Z,0
2022-11-07T17:25:37.532Z,0
2022-11-07T17:26:18.041Z,0
2022-11-07T17:26:58.536Z,0
2022-11-07T17:27:39.290Z,0
2022-11-07T17:28:19.726Z,0
2022-11-07T17:29:00.280Z,0
2022-11-07T17:29:40.824Z,0
2022-11-07T17:30:21.222Z,0
2022-11-07T17:37:06.291Z,0
2022-11-07T17:37:46.752Z,0
2022-11-07T17:38:27.225Z,0
2022-11-07T17:39:07.688Z,0
2022-11-07T17:39:48.204Z,0
2022-11-07T17:40:28.654Z,0
2022-11-07T17:41:09.176Z,0
2022-11-07T17:41:49.617Z,0
2022-11-07T17:42:33.811Z,0
2022-11-07T17:43:10.599Z,0
2022-11-07T17:43:51.160Z,0
2022-11-07T17:49:56.053Z,0
2022-11-07T17:50:36.594Z,0
2022-11-07T17:51:17.117Z,0
2022-11-07T17:51:57.584Z,0
2022-11-07T17:52:38.080Z,0
2022-11-07T18:34:12.854Z,0
2022-11-07T18:34:52.967Z,0
2022-11-07T18:35:33.501Z,0
2022-11-07T18:36:13.982Z,0
2022-11-07T18:36:54.471Z,0
2022-11-07T18:37:34.947Z,0
2022-11-07T18:38:15.691Z,0
2022-11-07T18:38:55.927Z,0
2022-11-07T18:39:36.424Z,0
2022-11-07T18:47:01.739Z,0
2022-11-07T18:47:42.979Z,0
2022-11-07T18:48:22.715Z,0
2022-11-07T18:49:03.179Z,0
2022-11-07T18:49:43.694Z,0
2022-11-07T18:51:04.632Z,0
2022-11-07T18:51:45.174Z,0
2022-11-07T18:52:25.612Z,0
2022-11-07T18:53:06.098Z,0
2022-11-07T18:53:46.650Z,0
2022-11-07T19:00:31.493Z,0
2022-11-07T19:01:12.020Z,0
2022-11-07T19:01:52.544Z,0
2022-11-07T19:02:32.939Z,0
2022-11-07T19:03:13.539Z,0
2022-11-07T19:03:53.860Z,0
2022-11-07T19:04:34.349Z,0
2022-11-07T19:05:14.847Z,0
2022-11-07T19:05:55.305Z,0
2022-11-07T19:06:35.794Z,0
2022-11-07T19:07:16.236Z,0
2022-11-07T19:14:41.554Z,0
2022-11-07T19:15:22.011Z,0
2022-11-07T19:16:02.527Z,0
2022-11-07T19:16:43.001Z,0
2022-11-07T19:17:23.498Z,0
2022-11-07T19:18:04.001Z,0
2022-11-07T19:18:49.073Z,0
2022-11-07T19:19:25.000Z,0
2022-11-07T19:20:05.466Z,0
2022-11-07T19:21:26.466Z,0
2022-11-07T19:28:11.414Z,0
2022-11-07T19:28:51.814Z,0
2022-11-07T19:29:32.399Z,0
2022-11-07T19:30:12.846Z,0
2022-11-07T19:30:53.281Z,0
2022-11-07T19:31:35.022Z,0
2022-11-07T19:32:14.221Z,0
2022-11-07T19:32:54.691Z,0
2022-11-07T19:33:35.139Z,0
2022-11-07T19:34:15.580Z,0
2022-11-07T19:34:56.134Z,0
2022-11-07T19:35:36.580Z,0
2022-11-07T19:42:21.400Z,0
2022-11-07T19:43:01.898Z,0
2022-11-07T19:43:42.511Z,0
2022-11-07T19:44:22.834Z,0
2022-11-07T19:45:03.307Z,0
2022-11-07T19:45:43.793Z,0
2022-11-07T19:46:24.323Z,0
2022-11-07T19:47:04.813Z,0
2022-11-07T19:47:45.258Z,0
2022-11-07T19:48:25.735Z,0
2022-11-07T19:49:06.297Z,0
2022-11-07T19:56:31.531Z,0
2022-11-07T19:57:11.978Z,0
2022-11-07T19:57:52.449Z,0
2022-11-07T19:58:32.897Z,0
2022-11-07T19:59:13.386Z,0
2022-11-07T19:59:53.874Z,0
2022-11-07T20:00:34.428Z,0
2022-11-07T20:02:18.194Z,0
2022-11-07T20:02:40.219Z,0
2022-11-07T20:03:16.695Z,0
2022-11-07T20:10:12.873Z,0
2022-11-07T20:10:53.362Z,0
2022-11-07T20:11:33.926Z,0
2022-11-07T20:12:14.478Z,0
2022-11-07T20:12:54.925Z,0
2022-11-07T20:13:35.586Z,0
2022-11-07T20:14:16.010Z,0
2022-11-07T20:14:56.500Z,0
2022-11-07T20:15:36.993Z,0
2022-11-07T20:16:17.451Z,0
2022-11-07T20:16:57.921Z,0
2022-11-07T20:23:42.896Z,0
2022-11-07T20:24:23.371Z,0
2022-11-07T20:25:03.881Z,0
2022-11-07T20:25:44.356Z,0
2022-11-07T20:26:24.926Z,0
2022-11-07T20:27:05.461Z,0
2022-11-07T20:27:45.908Z,0
2022-11-07T20:28:26.421Z,0
2022-11-07T20:29:06.924Z,0
2022-11-07T20:29:47.339Z,0
2022-11-07T20:30:27.886Z,0
2022-11-07T20:37:12.956Z,0
2022-11-07T20:37:53.419Z,0
2022-11-07T20:38:33.917Z,0
2022-11-07T20:39:14.443Z,0
2022-11-07T20:39:54.968Z,0
2022-11-07T20:40:35.433Z,0
2022-11-07T20:41:15.892Z,0
2022-11-07T20:41:56.364Z,0
2022-11-07T20:42:36.907Z,0
2022-11-07T20:43:17.696Z,0
2022-11-07T20:43:57.964Z,0
2022-11-07T20:50:42.921Z,0
2022-11-07T20:51:23.412Z,0
2022-11-07T20:52:03.940Z,0
2022-11-07T20:52:44.460Z,0
2022-11-07T20:53:24.942Z,0
2022-11-07T20:54:05.517Z,0
2022-11-07T20:54:45.931Z,0
2022-11-07T20:55:26.430Z,0
2022-11-07T20:56:06.908Z,0
2022-11-07T20:56:47.433Z,0
2022-11-07T20:57:27.950Z,0
2022-11-07T21:02:52.761Z,0
2022-11-07T21:04:13.044Z,0
2022-11-07T21:05:15.903Z,0
2022-11-07T21:05:33.954Z,0
2022-11-07T21:06:14.446Z,0
2022-11-07T21:06:54.975Z,0
2022-11-07T21:07:35.495Z,0
2022-11-07T21:08:15.959Z,0
2022-11-07T21:08:56.499Z,0